Time;durP1;ratioP1;P1;durP2;ratioP2;P2;SDS_P1;SDS_P2;PMS_P1;PMS_P2;Temp;Humidity;BMP_temperature;BMP_pressure;BME280_temperature;BME280_humidity;BME280_pressure;Samples;Min_cycle;Max_cycle;Signal;HPM_P1;HPM_P2
2020/12/06 00:02:19;;;;;;;46.17;24.52;;;;;;;;;;5065609;28;20143;-82
2020/12/06 00:04:45;;;;;;;44.03;23.58;;;;;;;;;;5067621;28;20229;-82
2020/12/06 00:07:15;;;;;;;54.15;26.75;;;;;;;;;;5075984;28;20406;-82
2020/12/06 00:09:45;;;;;;;50.53;25.10;;;;;;;;;;5072432;28;20044;-82
2020/12/06 00:12:31;;;;;;;45.60;23.15;;;;;;;;;;5068730;28;20098;-82
2020/12/06 00:15:04;;;;;;;45.30;22.48;;;;;;;;;;5084853;28;20053;-82
2020/12/06 00:17:34;;;;;;;42.90;23.08;;;;;;;;;;5068449;28;20108;-82
2020/12/06 00:20:00;;;;;;;44.03;22.73;;;;;;;;;;5072890;28;20060;-82
2020/12/06 00:22:27;;;;;;;54.17;24.42;;;;;;;;;;5067835;28;20057;-82
2020/12/06 00:24:53;;;;;;;45.25;24.23;;;;;;;;;;5075011;28;20470;-82
2020/12/06 00:27:22;;;;;;;47.35;24.75;;;;;;;;;;5069556;28;20067;-82
2020/12/06 00:29:48;;;;;;;44.30;24.02;;;;;;;;;;5065263;28;20155;-82
2020/12/06 00:32:14;;;;;;;41.80;22.60;;;;;;;;;;5069568;28;20058;-82
2020/12/06 00:34:44;;;;;;;44.15;23.73;;;;;;;;;;5069504;28;20433;-82
2020/12/06 00:37:11;;;;;;;41.33;22.77;;;;;;;;;;5069607;28;20037;-82
2020/12/06 00:39:43;;;;;;;42.13;24.30;;;;;;;;;;5068310;28;20146;-82
2020/12/06 00:42:09;;;;;;;44.03;24.38;;;;;;;;;;5066986;28;20325;-82
2020/12/06 00:44:38;;;;;;;38.78;21.23;;;;;;;;;;5067333;28;20048;-82
2020/12/06 00:47:05;;;;;;;39.72;20.92;;;;;;;;;;5086415;28;20052;-82
2020/12/06 00:49:32;;;;;;;42.92;23.10;;;;;;;;;;5085592;28;20048;-82
2020/12/06 00:51:58;;;;;;;40.95;23.23;;;;;;;;;;5085995;28;20048;-83
2020/12/06 00:54:32;;;;;;;39.83;23.05;;;;;;;;;;5086223;28;20108;-83
2020/12/06 00:56:58;;;;;;;45.15;24.17;;;;;;;;;;5087875;28;20052;-83
2020/12/06 00:59:31;;;;;;;37.10;21.55;;;;;;;;;;5092960;28;20056;-83
2020/12/06 01:01:58;;;;;;;45.80;24.77;;;;;;;;;;5099610;28;20113;-83
2020/12/06 01:04:31;;;;;;;38.72;22.08;;;;;;;;;;5093915;28;20081;-83
2020/12/06 01:07:02;;;;;;;41.20;23.27;;;;;;;;;;5089047;28;20149;-83
2020/12/06 01:09:32;;;;;;;44.72;22.42;;;;;;;;;;5093193;28;20359;-83
2020/12/06 01:12:04;;;;;;;39.67;22.20;;;;;;;;;;5092421;28;20047;-83
2020/12/06 01:14:38;;;;;;;37.58;21.25;;;;;;;;;;5099059;28;20052;-84
2020/12/06 01:17:06;;;;;;;38.70;22.13;;;;;;;;;;5102948;28;20047;-83
2020/12/06 01:19:35;;;;;;;44.55;24.70;;;;;;;;;;5092500;28;20045;-84
2020/12/06 01:22:09;;;;;;;42.60;22.42;;;;;;;;;;5089506;28;20051;-84
2020/12/06 01:24:38;;;;;;;39.90;21.70;;;;;;;;;;5098279;28;20382;-83
2020/12/06 01:27:05;;;;;;;39.88;23.40;;;;;;;;;;5090905;28;20067;-83
2020/12/06 01:29:35;;;;;;;39.47;22.55;;;;;;;;;;5091562;28;20087;-83
2020/12/06 01:32:01;;;;;;;40.15;22.60;;;;;;;;;;5100327;28;20074;-83
2020/12/06 01:34:33;;;;;;;38.25;22.08;;;;;;;;;;5099827;28;20391;-81
2020/12/06 01:37:07;;;;;;;44.92;23.92;;;;;;;;;;5096795;28;20412;-83
2020/12/06 01:39:39;;;;;;;39.53;23.20;;;;;;;;;;5094993;28;20044;-84
2020/12/06 01:42:06;;;;;;;40.85;22.90;;;;;;;;;;5091878;28;20053;-83
2020/12/06 01:44:32;;;;;;;47.40;24.30;;;;;;;;;;5086878;28;20044;-83
2020/12/06 01:47:01;;;;;;;39.95;22.35;;;;;;;;;;5114720;28;20423;-83
2020/12/06 01:49:37;;;;;;;42.30;23.00;;;;;;;;;;5095746;28;20138;-83
2020/12/06 01:52:04;;;;;;;43.10;24.17;;;;;;;;;;5092329;28;20143;-83
2020/12/06 01:54:33;;;;;;;40.15;24.10;;;;;;;;;;5110179;28;20105;-83
2020/12/06 01:57:08;;;;;;;38.17;22.70;;;;;;;;;;5109428;28;20052;-83
2020/12/06 01:59:38;;;;;;;39.75;23.92;;;;;;;;;;5118356;28;20044;-83
2020/12/06 02:02:05;;;;;;;41.75;24.23;;;;;;;;;;5116445;28;20129;-84
2020/12/06 02:04:33;;;;;;;37.25;22.33;;;;;;;;;;5129599;28;20060;-84
2020/12/06 02:06:59;;;;;;;43.97;23.27;;;;;;;;;;5114524;28;20051;-84
2020/12/06 02:12:54;;;;;;;36.15;22.45;;;;;;;;;;5118495;28;20077;-83
2020/12/06 02:15:25;;;;;;;40.38;22.77;;;;;;;;;;5108164;28;20059;-83
2020/12/06 02:17:51;;;;;;;38.15;23.33;;;;;;;;;;5131690;28;20031;-83
2020/12/06 02:20:23;;;;;;;38.60;21.58;;;;;;;;;;5109657;28;20079;-83
2020/12/06 02:22:51;;;;;;;38.65;22.33;;;;;;;;;;5099488;28;20077;-83
2020/12/06 02:25:18;;;;;;;38.42;21.33;;;;;;;;;;5103384;28;20032;-85
2020/12/06 02:27:44;;;;;;;39.55;22.95;;;;;;;;;;5127240;28;20032;-83
2020/12/06 02:30:12;;;;;;;36.95;21.95;;;;;;;;;;5118869;28;20044;-83
2020/12/06 02:32:38;;;;;;;41.72;21.30;;;;;;;;;;5095731;28;20036;-83
2020/12/06 02:35:05;;;;;;;37.40;21.73;;;;;;;;;;5093669;28;20412;-83
2020/12/06 02:37:32;;;;;;;40.95;21.65;;;;;;;;;;5113123;28;20123;-83
2020/12/06 02:39:58;;;;;;;36.38;20.38;;;;;;;;;;5130989;28;20066;-83
2020/12/06 02:42:24;;;;;;;39.65;20.85;;;;;;;;;;5124175;28;20178;-83
2020/12/06 02:44:50;;;;;;;35.42;21.45;;;;;;;;;;5103304;28;20052;-83
2020/12/06 02:47:16;;;;;;;33.42;19.75;;;;;;;;;;5098067;28;20313;-83
2020/12/06 02:49:43;;;;;;;38.55;22.98;;;;;;;;;;5120528;28;20047;-83
2020/12/06 02:52:09;;;;;;;42.85;22.70;;;;;;;;;;5098357;28;20047;-83
2020/12/06 02:54:43;;;;;;;37.75;22.23;;;;;;;;;;5113684;28;20331;-83
2020/12/06 02:57:09;;;;;;;42.10;21.42;;;;;;;;;;5092149;28;20078;-83
2020/12/06 02:59:40;;;;;;;37.17;22.23;;;;;;;;;;5111496;28;20413;-83
2020/12/06 03:02:06;;;;;;;38.65;22.88;;;;;;;;;;5112660;28;20228;-83
2020/12/06 03:04:35;;;;;;;37.72;22.30;;;;;;;;;;5117105;28;20070;-83
2020/12/06 03:07:03;;;;;;;36.97;21.52;;;;;;;;;;5109919;28;20174;-83
2020/12/06 03:09:34;;;;;;;38.90;22.80;;;;;;;;;;5110926;28;20044;-83
2020/12/06 03:12:02;;;;;;;35.05;21.58;;;;;;;;;;5107618;28;20374;-83
2020/12/06 03:14:32;;;;;;;40.95;22.80;;;;;;;;;;5090858;28;20044;-83
2020/12/06 03:16:58;;;;;;;37.10;21.55;;;;;;;;;;5098737;28;20101;-83
2020/12/06 03:19:25;;;;;;;43.42;24.33;;;;;;;;;;5110464;28;20313;-83
2020/12/06 03:21:51;;;;;;;41.47;23.58;;;;;;;;;;5102706;28;20062;-83
2020/12/06 03:24:18;;;;;;;36.17;21.88;;;;;;;;;;5112053;28;20135;-83
2020/12/06 03:26:45;;;;;;;38.72;21.80;;;;;;;;;;5094125;28;20055;-83
2020/12/06 03:29:15;;;;;;;42.28;22.02;;;;;;;;;;5097129;28;20066;-83
2020/12/06 03:31:44;;;;;;;35.70;21.63;;;;;;;;;;5097749;28;20052;-83
2020/12/06 03:34:10;;;;;;;36.95;20.40;;;;;;;;;;5094589;28;20043;-83
2020/12/06 03:36:38;;;;;;;38.03;21.05;;;;;;;;;;5114783;28;20050;-83
2020/12/06 03:39:04;;;;;;;38.80;21.52;;;;;;;;;;5112047;28;20056;-83
2020/12/06 03:41:30;;;;;;;37.42;22.52;;;;;;;;;;5108015;28;20346;-83
2020/12/06 03:43:58;;;;;;;40.88;23.48;;;;;;;;;;5117240;28;20051;-83
2020/12/06 03:46:28;;;;;;;39.95;23.17;;;;;;;;;;5102230;28;20094;-83
2020/12/06 03:48:56;;;;;;;37.95;22.17;;;;;;;;;;5092443;28;20051;-83
2020/12/06 03:51:26;;;;;;;39.38;22.85;;;;;;;;;;5117037;28;20351;-83
2020/12/06 03:53:57;;;;;;;38.65;22.77;;;;;;;;;;5107770;28;20166;-83
2020/12/06 03:56:26;;;;;;;36.47;22.05;;;;;;;;;;5091122;28;20055;-83
2020/12/06 03:58:52;;;;;;;38.00;21.85;;;;;;;;;;5106265;28;20040;-83
2020/12/06 04:01:19;;;;;;;37.35;20.60;;;;;;;;;;5110537;28;20065;-83
2020/12/06 04:03:48;;;;;;;33.88;20.88;;;;;;;;;;5115425;28;20036;-83
2020/12/06 04:06:17;;;;;;;37.78;22.00;;;;;;;;;;5125059;28;20141;-84
2020/12/06 04:08:43;;;;;;;36.97;21.98;;;;;;;;;;5126754;28;20101;-81
2020/12/06 04:11:12;;;;;;;32.53;20.05;;;;;;;;;;5102474;28;20085;-84
2020/12/06 04:13:41;;;;;;;36.00;20.75;;;;;;;;;;5110767;28;20354;-83
2020/12/06 04:16:12;;;;;;;35.13;21.08;;;;;;;;;;5097464;28;20280;-84
2020/12/06 04:18:40;;;;;;;35.75;20.65;;;;;;;;;;5097788;28;20048;-80
2020/12/06 04:21:12;;;;;;;36.65;22.30;;;;;;;;;;5108099;28;20044;-83
2020/12/06 04:23:39;;;;;;;38.20;20.50;;;;;;;;;;5107379;28;20059;-84
2020/12/06 04:26:09;;;;;;;35.53;21.52;;;;;;;;;;5111979;28;20083;-84
2020/12/06 04:28:36;;;;;;;34.97;21.33;;;;;;;;;;5097360;28;20047;-83
2020/12/06 04:31:03;;;;;;;36.72;21.30;;;;;;;;;;5079158;28;20130;-84
2020/12/06 04:33:30;;;;;;;34.75;20.85;;;;;;;;;;5110635;28;20493;-84
2020/12/06 04:35:59;;;;;;;35.47;21.27;;;;;;;;;;5093563;28;20075;-84
2020/12/06 04:38:35;;;;;;;37.60;21.63;;;;;;;;;;5099314;28;20435;-84
2020/12/06 04:41:09;;;;;;;38.65;21.15;;;;;;;;;;5111781;28;20059;-84
2020/12/06 04:43:39;;;;;;;32.83;19.58;;;;;;;;;;5095537;28;20443;-84
2020/12/06 04:46:05;;;;;;;35.00;20.70;;;;;;;;;;5091977;28;20152;-84
2020/12/06 04:48:46;;;;;;;36.75;20.45;;;;;;;;;;5093244;28;20055;-84
2020/12/06 04:51:15;;;;;;;39.13;21.75;;;;;;;;;;5088812;28;20060;-84
2020/12/06 04:54:00;;;;;;;32.92;20.58;;;;;;;;;;5092906;28;20053;-84
2020/12/06 04:56:39;;;;;;;36.25;22.13;;;;;;;;;;5099757;28;20044;-84
2020/12/06 04:59:06;;;;;;;36.58;21.38;;;;;;;;;;5093258;28;20055;-84
2020/12/06 05:01:34;;;;;;;37.75;21.13;;;;;;;;;;5098193;28;20044;-83
2020/12/06 05:04:11;;;;;;;32.88;19.67;;;;;;;;;;5096365;28;20063;-84
2020/12/06 05:06:37;;;;;;;32.00;19.80;;;;;;;;;;5112474;28;20314;-83
2020/12/06 05:09:07;;;;;;;42.65;22.40;;;;;;;;;;5092990;28;20083;-81
2020/12/06 05:11:34;;;;;;;33.20;19.98;;;;;;;;;;5098059;28;20044;-83
2020/12/06 05:14:06;;;;;;;35.22;20.35;;;;;;;;;;5104965;28;20074;-85
2020/12/06 05:16:38;;;;;;;33.60;20.00;;;;;;;;;;5111049;28;20050;-85
2020/12/06 05:19:06;;;;;;;33.35;20.00;;;;;;;;;;5100595;28;20097;-85
2020/12/06 05:21:37;;;;;;;31.08;19.65;;;;;;;;;;5087264;28;20050;-86
2020/12/06 05:24:04;;;;;;;36.50;21.27;;;;;;;;;;5089613;28;20060;-85
2020/12/06 05:26:30;;;;;;;36.30;20.45;;;;;;;;;;5082974;28;20045;-86
2020/12/06 05:28:57;;;;;;;35.88;21.65;;;;;;;;;;5091661;28;20062;-85
2020/12/06 05:31:27;;;;;;;37.78;22.48;;;;;;;;;;5088118;28;20107;-86
2020/12/06 05:33:55;;;;;;;35.45;21.40;;;;;;;;;;5098981;28;20063;-85
2020/12/06 05:36:21;;;;;;;31.80;19.48;;;;;;;;;;5109607;28;20039;-84
2020/12/06 05:38:48;;;;;;;34.67;20.45;;;;;;;;;;5100321;28;20048;-84
2020/12/06 05:41:15;;;;;;;44.42;23.13;;;;;;;;;;5089715;28;20047;-84
2020/12/06 05:43:41;;;;;;;41.55;22.02;;;;;;;;;;5090570;28;20052;-85
2020/12/06 05:46:12;;;;;;;36.50;21.02;;;;;;;;;;5111695;28;20039;-86
2020/12/06 05:48:42;;;;;;;38.72;21.42;;;;;;;;;;5127581;28;20042;-85
2020/12/06 05:51:13;;;;;;;35.17;21.83;;;;;;;;;;5107534;28;20047;-84
2020/12/06 05:53:39;;;;;;;41.30;23.00;;;;;;;;;;5105130;28;20058;-83
2020/12/06 05:56:14;;;;;;;37.38;20.75;;;;;;;;;;5094508;28;20347;-82
2020/12/06 05:58:42;;;;;;;38.63;21.45;;;;;;;;;;5108493;28;20142;-82
2020/12/06 06:01:12;;;;;;;36.03;21.92;;;;;;;;;;5089271;28;20047;-82
2020/12/06 06:03:45;;;;;;;38.53;22.02;;;;;;;;;;5092809;28;20051;-82
2020/12/06 06:06:15;;;;;;;40.00;22.13;;;;;;;;;;5091792;28;20183;-82
2020/12/06 06:08:44;;;;;;;35.60;21.88;;;;;;;;;;5110342;28;20043;-82
2020/12/06 06:11:26;;;;;;;40.70;23.48;;;;;;;;;;5110439;28;20051;-82
2020/12/06 06:13:57;;;;;;;42.42;23.50;;;;;;;;;;5091898;28;20077;-83
2020/12/06 06:16:25;;;;;;;37.45;22.33;;;;;;;;;;5112991;28;20089;-83
2020/12/06 06:18:51;;;;;;;42.33;24.10;;;;;;;;;;5089478;28;20048;-83
2020/12/06 06:21:19;;;;;;;45.42;24.50;;;;;;;;;;5092222;28;20078;-83
2020/12/06 06:23:50;;;;;;;41.85;23.17;;;;;;;;;;5091396;28;20339;-83
2020/12/06 06:26:17;;;;;;;38.20;23.17;;;;;;;;;;5093450;28;20423;-83
2020/12/06 06:28:58;;;;;;;47.65;25.70;;;;;;;;;;5088101;28;20048;-83
2020/12/06 06:31:31;;;;;;;48.10;24.70;;;;;;;;;;5107867;28;20087;-83
2020/12/06 06:33:57;;;;;;;41.95;24.40;;;;;;;;;;5093532;28;20061;-83
2020/12/06 06:36:23;;;;;;;42.70;25.15;;;;;;;;;;5109413;28;20039;-83
2020/12/06 06:38:51;;;;;;;45.17;25.35;;;;;;;;;;5090673;28;20565;-83
2020/12/06 06:41:17;;;;;;;47.75;24.75;;;;;;;;;;5104385;28;20052;-83
2020/12/06 06:43:43;;;;;;;43.58;24.35;;;;;;;;;;5087128;28;20044;-83
2020/12/06 06:46:12;;;;;;;48.95;26.35;;;;;;;;;;5089234;28;20052;-83
2020/12/06 06:48:39;;;;;;;47.67;25.60;;;;;;;;;;5086526;28;20044;-83
2020/12/06 06:51:05;;;;;;;46.45;24.77;;;;;;;;;;5111643;28;20048;-83
2020/12/06 06:53:38;;;;;;;46.53;26.08;;;;;;;;;;5117744;28;20059;-84
2020/12/06 06:56:09;;;;;;;47.65;26.55;;;;;;;;;;5100677;28;20306;-83
2020/12/06 06:58:43;;;;;;;47.80;26.80;;;;;;;;;;5099591;28;20058;-83
2020/12/06 07:01:25;;;;;;;56.60;28.87;;;;;;;;;;5099478;28;20066;-84
2020/12/06 07:03:55;;;;;;;49.33;27.73;;;;;;;;;;5098972;28;20435;-84
2020/12/06 07:06:46;;;;;;;51.42;28.08;;;;;;;;;;5099961;28;20054;-84
2020/12/06 07:09:15;;;;;;;54.00;27.35;;;;;;;;;;5103719;28;20246;-84
2020/12/06 07:11:42;;;;;;;53.42;29.60;;;;;;;;;;5100652;28;20134;-84
2020/12/06 07:14:11;;;;;;;51.47;29.80;;;;;;;;;;5118785;28;20047;-85
2020/12/06 07:16:42;;;;;;;57.97;30.27;;;;;;;;;;5114838;28;20040;-85
2020/12/06 07:19:10;;;;;;;53.00;30.02;;;;;;;;;;5115173;28;20187;-85
2020/12/06 07:21:36;;;;;;;56.15;29.50;;;;;;;;;;5086956;28;20044;-86
2020/12/06 07:24:04;;;;;;;56.60;29.98;;;;;;;;;;5082387;28;20062;-85
2020/12/06 07:26:36;;;;;;;53.72;29.90;;;;;;;;;;5100612;28;20063;-85
2020/12/06 07:29:03;;;;;;;57.65;29.55;;;;;;;;;;5097899;28;20084;-85
2020/12/06 07:31:29;;;;;;;53.30;30.25;;;;;;;;;;5098844;28;20058;-85
2020/12/06 07:33:55;;;;;;;51.70;30.02;;;;;;;;;;5102671;28;20396;-85
2020/12/06 07:36:21;;;;;;;54.72;31.30;;;;;;;;;;5102440;28;20059;-85
2020/12/06 07:38:52;;;;;;;57.47;30.77;;;;;;;;;;5119320;28;20047;-85
2020/12/06 07:41:20;;;;;;;58.35;32.63;;;;;;;;;;5080769;28;20072;-85
2020/12/06 07:43:54;;;;;;;73.88;31.83;;;;;;;;;;5106464;28;20051;-86
2020/12/06 07:46:24;;;;;;;52.13;29.42;;;;;;;;;;5103171;28;20055;-85
2020/12/06 07:48:57;;;;;;;58.50;31.67;;;;;;;;;;5095204;28;20135;-85
2020/12/06 07:51:26;;;;;;;60.25;33.50;;;;;;;;;;5084213;28;20048;-85
2020/12/06 07:53:53;;;;;;;53.42;31.30;;;;;;;;;;5099056;28;20091;-85
2020/12/06 07:56:33;;;;;;;64.05;33.35;;;;;;;;;;5098826;28;20442;-85
2020/12/06 07:59:33;;;;;;;57.92;31.40;;;;;;;;;;5096775;28;20051;-85
2020/12/06 08:02:04;;;;;;;62.47;32.55;;;;;;;;;;5078718;28;20062;-85
2020/12/06 08:04:55;;;;;;;53.95;30.77;;;;;;;;;;5102498;28;20051;-85
2020/12/06 08:07:39;;;;;;;57.03;31.23;;;;;;;;;;5117342;28;20063;-85
2020/12/06 08:10:13;;;;;;;64.45;31.08;;;;;;;;;;5101831;28;20146;-84
2020/12/06 08:12:51;;;;;;;59.25;33.25;;;;;;;;;;5088643;28;20051;-85
2020/12/06 08:15:30;;;;;;;56.13;31.10;;;;;;;;;;5105024;28;20052;-84
2020/12/06 08:17:59;;;;;;;57.28;31.08;;;;;;;;;;5083426;28;20079;-84
2020/12/06 08:20:28;;;;;;;62.60;30.33;;;;;;;;;;5102761;28;20059;-84
2020/12/06 08:22:59;;;;;;;55.67;32.08;;;;;;;;;;5100926;28;20056;-85
2020/12/06 08:25:34;;;;;;;57.92;32.35;;;;;;;;;;5102736;28;20052;-84
2020/12/06 08:28:04;;;;;;;58.60;30.92;;;;;;;;;;5087246;28;20056;-84
2020/12/06 08:30:34;;;;;;;64.40;32.67;;;;;;;;;;5111005;28;20044;-84
2020/12/06 08:33:21;;;;;;;61.58;31.80;;;;;;;;;;5117484;28;20062;-85
2020/12/06 08:35:48;;;;;;;60.08;32.33;;;;;;;;;;5115997;28;20048;-85
2020/12/06 08:38:20;;;;;;;61.40;32.95;;;;;;;;;;5109858;28;20036;-86
2020/12/06 08:41:10;;;;;;;66.00;34.30;;;;;;;;;;5108321;28;20047;-85
2020/12/06 08:43:49;;;;;;;63.40;34.42;;;;;;;;;;5114615;28;20051;-85
2020/12/06 08:46:25;;;;;;;72.70;34.97;;;;;;;;;;5097921;28;20223;-85
2020/12/06 08:49:03;;;;;;;65.10;34.30;;;;;;;;;;5088171;28;20049;-85
2020/12/06 08:51:37;;;;;;;62.55;33.35;;;;;;;;;;5079394;28;20289;-84
2020/12/06 08:54:09;;;;;;;75.53;35.35;;;;;;;;;;5082491;28;20104;-85
2020/12/06 08:56:52;;;;;;;66.25;33.15;;;;;;;;;;5085111;28;20052;-85
2020/12/06 08:59:25;;;;;;;70.20;35.03;;;;;;;;;;5110245;28;20040;-85
2020/12/06 09:01:58;;;;;;;66.45;34.35;;;;;;;;;;5097901;28;20060;-86
2020/12/06 09:04:24;;;;;;;72.25;35.60;;;;;;;;;;5083149;28;20049;-86
2020/12/06 09:06:56;;;;;;;64.38;35.08;;;;;;;;;;5093265;28;20048;-86
2020/12/06 09:09:26;;;;;;;71.35;36.50;;;;;;;;;;5102616;28;20067;-87
2020/12/06 09:11:57;;;;;;;68.95;36.10;;;;;;;;;;5095840;28;20036;-86
2020/12/06 09:14:26;;;;;;;73.45;36.00;;;;;;;;;;5084519;28;20048;-86
2020/12/06 09:17:00;;;;;;;72.80;36.25;;;;;;;;;;5085749;28;20067;-86
2020/12/06 09:19:42;;;;;;;70.40;36.45;;;;;;;;;;5099017;28;20055;-85
2020/12/06 09:22:10;;;;;;;86.95;38.35;;;;;;;;;;5100225;28;20055;-86
2020/12/06 09:24:41;;;;;;;77.90;37.75;;;;;;;;;;5097865;28;20056;-85
2020/12/06 09:27:14;;;;;;;68.93;35.72;;;;;;;;;;5093539;28;20075;-85
2020/12/06 09:29:42;;;;;;;69.68;36.17;;;;;;;;;;5101234;28;20052;-85
2020/12/06 09:32:20;;;;;;;81.78;38.83;;;;;;;;;;5092741;28;20043;-85
2020/12/06 09:34:48;;;;;;;75.15;38.58;;;;;;;;;;5087022;28;20056;-85
2020/12/06 09:37:49;;;;;;;78.63;39.20;;;;;;;;;;5089457;28;20053;-85
2020/12/06 09:40:31;;;;;;;74.75;37.55;;;;;;;;;;5089460;28;20390;-85
2020/12/06 09:43:06;;;;;;;75.75;37.08;;;;;;;;;;5087289;28;20325;-85
2020/12/06 09:45:49;;;;;;;78.95;39.33;;;;;;;;;;5095609;28;20079;-85
2020/12/06 09:48:19;;;;;;;79.63;39.72;;;;;;;;;;5090518;28;20040;-85
2020/12/06 09:50:48;;;;;;;76.13;39.25;;;;;;;;;;5076860;28;20075;-85
2020/12/06 09:53:19;;;;;;;74.80;35.22;;;;;;;;;;5080441;28;20119;-85
2020/12/06 09:55:45;;;;;;;76.22;37.45;;;;;;;;;;5084974;28;20296;-85
2020/12/06 09:58:11;;;;;;;76.40;37.75;;;;;;;;;;5083402;28;20504;-85
2020/12/06 10:00:45;;;;;;;79.43;40.08;;;;;;;;;;5079855;28;20048;-85
2020/12/06 10:03:16;;;;;;;83.32;39.17;;;;;;;;;;5078580;28;20297;-84
2020/12/06 10:05:48;;;;;;;75.68;37.72;;;;;;;;;;5078897;28;20055;-84
2020/12/06 10:08:22;;;;;;;73.93;37.58;;;;;;;;;;5090208;28;20057;-84
2020/12/06 10:11:03;;;;;;;83.53;39.05;;;;;;;;;;5078572;28;20044;-84
2020/12/06 10:14:03;;;;;;;80.25;36.92;;;;;;;;;;5074255;28;20123;-85
2020/12/06 10:16:45;;;;;;;80.50;38.17;;;;;;;;;;5071444;28;20359;-85
2020/12/06 10:19:15;;;;;;;85.07;40.70;;;;;;;;;;5081336;28;20047;-85
2020/12/06 10:22:21;;;;;;;87.38;40.35;;;;;;;;;;5075914;28;20084;-88
2020/12/06 10:25:04;;;;;;;84.60;40.97;;;;;;;;;;5084083;28;20154;-86
2020/12/06 10:27:45;;;;;;;85.70;40.70;;;;;;;;;;5078631;28;20095;-87
2020/12/06 10:30:11;;;;;;;87.15;40.58;;;;;;;;;;5098714;28;20506;-87
2020/12/06 10:32:40;;;;;;;80.72;40.72;;;;;;;;;;5071799;28;20072;-87
2020/12/06 10:35:12;;;;;;;87.70;41.80;;;;;;;;;;5079175;28;20368;-87
2020/12/06 10:37:41;;;;;;;80.57;38.58;;;;;;;;;;5065776;28;20059;-87
2020/12/06 10:40:13;;;;;;;91.60;42.50;;;;;;;;;;5088558;28;20052;-87
2020/12/06 10:42:48;;;;;;;84.65;39.90;;;;;;;;;;5080868;28;20429;-87
2020/12/06 10:45:17;;;;;;;79.78;40.13;;;;;;;;;;5098106;28;20115;-87
2020/12/06 10:47:50;;;;;;;94.78;43.42;;;;;;;;;;5095833;28;20059;-86
2020/12/06 10:50:18;;;;;;;86.90;42.55;;;;;;;;;;5090399;28;20064;-87
2020/12/06 10:52:52;;;;;;;86.65;41.50;;;;;;;;;;5090234;28;20048;-87
2020/12/06 10:55:35;;;;;;;85.40;42.47;;;;;;;;;;5109853;28;20086;-87
2020/12/06 10:58:05;;;;;;;82.45;40.83;;;;;;;;;;5099301;28;20072;-87
2020/12/06 11:00:40;;;;;;;96.70;45.17;;;;;;;;;;5087973;28;20045;-87
2020/12/06 11:03:16;;;;;;;91.20;43.60;;;;;;;;;;5088672;28;20181;-87
2020/12/06 11:05:54;;;;;;;93.38;44.80;;;;;;;;;;5094522;28;20044;-87
2020/12/06 11:08:25;;;;;;;89.70;41.17;;;;;;;;;;5086483;28;20040;-87
2020/12/06 11:11:01;;;;;;;96.53;43.53;;;;;;;;;;5092971;28;20102;-87
2020/12/06 11:13:42;;;;;;;94.97;42.30;;;;;;;;;;5094109;28;20281;-87
2020/12/06 11:16:39;;;;;;;92.85;41.70;;;;;;;;;;5091448;28;20366;-87
2020/12/06 11:19:13;;;;;;;92.28;41.60;;;;;;;;;;5092344;28;20055;-87
2020/12/06 11:21:54;;;;;;;92.75;42.78;;;;;;;;;;5090465;28;20071;-87
2020/12/06 11:24:25;;;;;;;93.85;43.03;;;;;;;;;;5080359;28;20059;-87
2020/12/06 11:30:19;;;;;;;99.38;43.22;;;;;;;;;;5110326;28;20407;-87
2020/12/06 11:33:00;;;;;;;93.78;41.55;;;;;;;;;;5097999;28;20335;-88
2020/12/06 11:35:40;;;;;;;94.35;43.58;;;;;;;;;;5082004;28;20043;-85
2020/12/06 11:38:11;;;;;;;95.13;43.42;;;;;;;;;;5091538;28;20112;-85
2020/12/06 11:40:56;;;;;;;100.05;44.08;;;;;;;;;;5089412;28;20305;-85
2020/12/06 11:43:24;;;;;;;107.68;45.47;;;;;;;;;;5082525;28;20048;-85
2020/12/06 11:45:54;;;;;;;110.45;45.33;;;;;;;;;;5099845;28;20086;-87
2020/12/06 11:48:27;;;;;;;102.13;44.15;;;;;;;;;;5122887;28;20053;-86
2020/12/06 11:50:54;;;;;;;101.35;42.15;;;;;;;;;;5110191;28;20043;-86
2020/12/06 11:53:21;;;;;;;93.25;43.22;;;;;;;;;;5111138;28;20442;-86
2020/12/06 11:55:49;;;;;;;95.22;43.33;;;;;;;;;;5090152;28;20082;-86
2020/12/06 11:58:18;;;;;;;94.20;42.88;;;;;;;;;;5084724;28;20086;-86
2020/12/06 12:00:44;;;;;;;99.30;43.50;;;;;;;;;;5077476;28;20047;-86
2020/12/06 12:03:14;;;;;;;96.70;42.33;;;;;;;;;;5082554;28;20329;-86
2020/12/06 12:05:48;;;;;;;100.15;44.88;;;;;;;;;;5106942;28;20062;-85
2020/12/06 12:08:26;;;;;;;86.20;41.88;;;;;;;;;;5085310;28;20339;-85
2020/12/06 12:10:56;;;;;;;92.20;41.80;;;;;;;;;;5095333;28;20055;-85
2020/12/06 12:13:27;;;;;;;91.47;42.33;;;;;;;;;;5071247;28;20051;-85
2020/12/06 12:16:04;;;;;;;105.15;44.17;;;;;;;;;;5086632;28;20077;-85
2020/12/06 12:18:45;;;;;;;99.38;43.80;;;;;;;;;;5088111;28;20043;-85
2020/12/06 12:21:34;;;;;;;100.93;43.95;;;;;;;;;;5086192;28;20047;-85
2020/12/06 12:24:26;;;;;;;94.25;43.45;;;;;;;;;;5097508;28;20063;-85
2020/12/06 12:27:16;;;;;;;94.97;42.22;;;;;;;;;;5115095;28;20058;-85
2020/12/06 12:29:42;;;;;;;93.28;43.40;;;;;;;;;;5090907;28;20039;-85
2020/12/06 12:32:10;;;;;;;100.95;43.70;;;;;;;;;;5104177;28;20347;-85
2020/12/06 12:34:46;;;;;;;106.32;45.35;;;;;;;;;;5114101;28;20086;-85
2020/12/06 12:37:20;;;;;;;104.63;45.08;;;;;;;;;;5103228;28;20051;-85
2020/12/06 12:39:56;;;;;;;104.47;46.20;;;;;;;;;;5097465;28;20493;-84
2020/12/06 12:42:30;;;;;;;100.10;44.10;;;;;;;;;;5097649;28;20620;-84
2020/12/06 12:45:10;;;;;;;99.38;44.15;;;;;;;;;;5085612;28;20047;-84
2020/12/06 12:47:53;;;;;;;101.90;44.17;;;;;;;;;;5089683;28;20087;-84
2020/12/06 12:50:24;;;;;;;96.88;44.67;;;;;;;;;;5092614;28;20067;-84
2020/12/06 12:52:59;;;;;;;91.60;42.10;;;;;;;;;;5090041;28;20092;-84
2020/12/06 12:55:42;;;;;;;91.38;43.92;;;;;;;;;;5089881;28;20435;-84
2020/12/06 12:58:25;;;;;;;97.88;43.55;;;;;;;;;;5081527;28;20051;-84
2020/12/06 13:01:02;;;;;;;94.53;43.30;;;;;;;;;;5093283;28;20039;-84
2020/12/06 13:03:47;;;;;;;95.85;43.13;;;;;;;;;;5078656;28;20139;-83
2020/12/06 13:06:43;;;;;;;89.45;42.47;;;;;;;;;;5093277;28;20040;-83
2020/12/06 13:09:19;;;;;;;89.82;41.80;;;;;;;;;;5088671;28;20052;-83
2020/12/06 13:12:14;;;;;;;99.72;43.90;;;;;;;;;;5114510;28;20035;-83
2020/12/06 13:15:21;;;;;;;98.55;42.17;;;;;;;;;;5128860;28;20027;-84
2020/12/06 13:17:53;;;;;;;94.40;43.80;;;;;;;;;;5116354;28;20052;-83
2020/12/06 13:20:30;;;;;;;91.57;44.70;;;;;;;;;;5091941;28;20047;-83
2020/12/06 13:23:11;;;;;;;97.93;44.00;;;;;;;;;;5096881;28;20066;-83
2020/12/06 13:25:46;;;;;;;93.05;44.00;;;;;;;;;;5096921;28;20067;-83
2020/12/06 13:28:42;;;;;;;117.72;44.08;;;;;;;;;;5106023;28;20103;-83
2020/12/06 13:31:38;;;;;;;90.47;42.30;;;;;;;;;;5098303;28;20398;-82
2020/12/06 13:34:11;;;;;;;100.15;44.80;;;;;;;;;;5108070;28;20320;-82
2020/12/06 13:36:39;;;;;;;94.07;42.65;;;;;;;;;;5102577;28;20554;-82
2020/12/06 13:39:13;;;;;;;98.95;45.78;;;;;;;;;;5080811;28;20146;-82
2020/12/06 13:41:42;;;;;;;99.50;44.28;;;;;;;;;;5099749;28;20258;-82
2020/12/06 13:44:16;;;;;;;99.32;46.40;;;;;;;;;;5078922;28;20501;-82
2020/12/06 13:46:47;;;;;;;101.28;44.78;;;;;;;;;;5088216;28;20071;-82
2020/12/06 13:49:14;;;;;;;97.25;44.08;;;;;;;;;;5095638;28;20052;-82
2020/12/06 13:51:43;;;;;;;102.47;48.38;;;;;;;;;;5091687;28;20104;-82
2020/12/06 13:54:14;;;;;;;100.88;45.78;;;;;;;;;;5090884;28;20048;-82
2020/12/06 13:56:43;;;;;;;97.07;44.80;;;;;;;;;;5080358;28;20048;-83
2020/12/06 13:59:16;;;;;;;93.13;43.28;;;;;;;;;;5081795;28;20238;-82
2020/12/06 14:01:59;;;;;;;99.80;45.60;;;;;;;;;;5089532;28;20070;-82
2020/12/06 14:04:29;;;;;;;104.40;46.78;;;;;;;;;;5095608;28;20145;-82
2020/12/06 14:07:13;;;;;;;106.93;46.65;;;;;;;;;;5075436;28;20310;-82
2020/12/06 14:09:40;;;;;;;107.63;46.05;;;;;;;;;;5078504;28;20069;-82
2020/12/06 14:12:08;;;;;;;102.88;46.85;;;;;;;;;;5084338;28;20113;-82
2020/12/06 14:14:38;;;;;;;102.22;46.95;;;;;;;;;;5072660;28;20044;-82
2020/12/06 14:17:11;;;;;;;107.85;47.30;;;;;;;;;;5073616;28;20169;-82
2020/12/06 14:19:38;;;;;;;98.35;44.92;;;;;;;;;;5075590;28;20045;-82
2020/12/06 14:22:07;;;;;;;100.40;44.92;;;;;;;;;;5077399;28;20557;-82
2020/12/06 14:24:38;;;;;;;103.07;47.78;;;;;;;;;;5080957;28;20048;-82
2020/12/06 14:27:05;;;;;;;96.80;44.33;;;;;;;;;;5101324;28;20226;-82
2020/12/06 14:29:41;;;;;;;98.57;46.78;;;;;;;;;;5101182;28;20044;-82
2020/12/06 14:32:11;;;;;;;97.28;44.40;;;;;;;;;;5100332;28;20146;-82
2020/12/06 14:35:10;;;;;;;98.55;46.03;;;;;;;;;;5098283;28;20602;-82
2020/12/06 14:37:54;;;;;;;89.70;45.92;;;;;;;;;;5099818;28;20402;-82
2020/12/06 14:40:26;;;;;;;97.28;44.53;;;;;;;;;;5105095;28;20047;-82
2020/12/06 14:42:56;;;;;;;91.68;44.10;;;;;;;;;;5112295;28;20104;-82
2020/12/06 14:45:28;;;;;;;97.40;42.83;;;;;;;;;;5117590;28;20109;-82
2020/12/06 14:48:35;;;;;;;89.75;42.92;;;;;;;;;;5100849;28;20105;-83
2020/12/06 14:51:03;;;;;;;91.10;45.38;;;;;;;;;;5085710;28;20051;-82
2020/12/06 14:53:30;;;;;;;104.88;45.60;;;;;;;;;;5114135;28;20526;-83